FWV98 LGSK-LDDU
Flight info
| Callsign | FWV98 |
|---|---|
| Flight time | N/A |
| Altitude | 32000 |
| Route | IBIDI UL617 TSL UN130 TALAS DCT MAVAR DCT RETRA DCT MOKUN |
| Aircraft | A320/M-SDE3FGHIRWY/LB1 |
Departure
| Time | 2026-05-09 10:21 |
|---|---|
| Airport | Skiathos Island National Airport (LGSK) |
Arrival
| Time | N/A |
|---|---|
| Airport | Dubrovnik Ruđer Bošković Airport (LDDU) |
| Time | Latitude | Longitude | Altitude | Speed | Heading |
|---|---|---|---|---|---|
| 2026-05-09 09:50 | 39.17953 | 23.50248 | 54 ft | 0 kts | 289° |
| 2026-05-09 10:05 | 39.17955 | 23.50243 | 55 ft | 0 kts | 289° |
| 2026-05-09 10:06 | 39.17951 | 23.50260 | 52 ft | 4 kts | 288° |
| 2026-05-09 10:06 | 39.17943 | 23.50292 | 50 ft | 4 kts | 284° |
| 2026-05-09 10:07 | 39.17939 | 23.50319 | 46 ft | 2 kts | 261° |
| 2026-05-09 10:07 | 39.17942 | 23.50334 | 45 ft | 2 kts | 225° |
| 2026-05-09 10:07 | 39.17951 | 23.50343 | 40 ft | 2 kts | 205° |
| 2026-05-09 10:07 | 39.17961 | 23.50348 | 41 ft | 2 kts | 200° |
| 2026-05-09 10:08 | 39.17965 | 23.50350 | 44 ft | 0 kts | 200° |
| 2026-05-09 10:16 | 39.17963 | 23.50349 | 45 ft | 1 kts | 199° |
| 2026-05-09 10:17 | 39.17944 | 23.50341 | 42 ft | 4 kts | 198° |
| 2026-05-09 10:17 | 39.17920 | 23.50376 | 42 ft | 7 kts | 101° |
| 2026-05-09 10:17 | 39.17929 | 23.50434 | 42 ft | 5 kts | 69° |
| 2026-05-09 10:17 | 39.17945 | 23.50457 | 43 ft | 3 kts | 34° |
| 2026-05-09 10:18 | 39.18002 | 23.50494 | 45 ft | 10 kts | 24° |
| 2026-05-09 10:18 | 39.18092 | 23.50528 | 47 ft | 23 kts | 18° |
| 2026-05-09 10:18 | 39.18244 | 23.50594 | 55 ft | 22 kts | 19° |
| 2026-05-09 10:18 | 39.18381 | 23.50637 | 57 ft | 20 kts | 356° |
| 2026-05-09 10:19 | 39.18408 | 23.50681 | 58 ft | 4 kts | 187° |
| 2026-05-09 10:19 | 39.18382 | 23.50656 | 60 ft | 6 kts | 201° |
| 2026-05-09 10:19 | 39.18373 | 23.50652 | 60 ft | 0 kts | 195° |
| 2026-05-09 10:20 | 39.18371 | 23.50652 | 60 ft | 2 kts | 195° |
| 2026-05-09 10:20 | 39.18193 | 23.50571 | 52 ft | 69 kts | 198° |
| 2026-05-09 10:20 | 39.17476 | 23.50254 | 34 ft | 144 kts | 198° |
| 2026-05-09 10:20 | 39.16365 | 23.49820 | 289 ft | 179 kts | 198° |
| 2026-05-09 10:21 | 39.15147 | 23.49248 | 859 ft | 193 kts | 201° |
| 2026-05-09 10:21 | 39.13904 | 23.48657 | 1846 ft | 188 kts | 200° |
| 2026-05-09 10:21 | 39.12667 | 23.48105 | 2444 ft | 193 kts | 200° |
| 2026-05-09 10:21 | 39.11349 | 23.47525 | 2884 ft | 204 kts | 200° |
| 2026-05-09 10:22 | 39.10004 | 23.46934 | 3485 ft | 205 kts | 201° |
| 2026-05-09 10:22 | 39.08651 | 23.46340 | 4102 ft | 206 kts | 201° |
| 2026-05-09 10:22 | 39.07271 | 23.45824 | 4691 ft | 210 kts | 188° |
| 2026-05-09 10:22 | 39.05835 | 23.46242 | 5248 ft | 222 kts | 150° |
| 2026-05-09 10:23 | 39.04867 | 23.47808 | 5791 ft | 234 kts | 109° |
| 2026-05-09 10:23 | 39.04706 | 23.49893 | 6336 ft | 239 kts | 91° |
| 2026-05-09 10:23 | 39.04728 | 23.52045 | 6864 ft | 242 kts | 90° |
| 2026-05-09 10:23 | 39.04776 | 23.54216 | 7393 ft | 244 kts | 90° |
| 2026-05-09 10:24 | 39.04827 | 23.56411 | 7926 ft | 247 kts | 90° |
| 2026-05-09 10:24 | 39.04874 | 23.58623 | 8466 ft | 249 kts | 90° |
| 2026-05-09 10:24 | 39.04917 | 23.60870 | 9085 ft | 252 kts | 91° |
| 2026-05-09 10:24 | 39.05024 | 23.63136 | 9764 ft | 256 kts | 78° |
| 2026-05-09 10:25 | 39.05745 | 23.65232 | 10366 ft | 259 kts | 50° |
| 2026-05-09 10:25 | 39.07095 | 23.66725 | 10965 ft | 258 kts | 23° |
| 2026-05-09 10:25 | 39.08851 | 23.67359 | 11225 ft | 270 kts | 355° |
| 2026-05-09 10:25 | 39.10719 | 23.66889 | 11463 ft | 283 kts | 333° |
| 2026-05-09 10:26 | 39.12580 | 23.65876 | 11936 ft | 295 kts | 332° |
| 2026-05-09 10:26 | 39.14471 | 23.64847 | 12735 ft | 293 kts | 333° |
| 2026-05-09 10:26 | 39.16378 | 23.63817 | 13374 ft | 301 kts | 333° |
| 2026-05-09 10:26 | 39.18325 | 23.62767 | 13977 ft | 305 kts | 333° |
| 2026-05-09 10:27 | 39.20296 | 23.61709 | 14613 ft | 308 kts | 333° |
| 2026-05-09 10:27 | 39.22275 | 23.60648 | 15282 ft | 309 kts | 333° |
| 2026-05-09 10:27 | 39.24268 | 23.59580 | 15961 ft | 310 kts | 333° |
| 2026-05-09 10:27 | 39.26261 | 23.58509 | 16630 ft | 311 kts | 332° |
| 2026-05-09 10:28 | 39.28266 | 23.57431 | 17300 ft | 313 kts | 332° |
| 2026-05-09 10:28 | 39.30280 | 23.56348 | 17963 ft | 314 kts | 332° |
| 2026-05-09 10:28 | 39.32301 | 23.55262 | 18573 ft | 316 kts | 332° |
| 2026-05-09 10:28 | 39.34342 | 23.54163 | 19109 ft | 319 kts | 332° |
| 2026-05-09 10:29 | 39.36399 | 23.53054 | 19624 ft | 322 kts | 332° |
| 2026-05-09 10:29 | 39.37773 | 23.52313 | 19980 ft | 323 kts | 332° |
| 2026-05-09 10:29 | 39.39864 | 23.51184 | 20500 ft | 326 kts | 332° |
| 2026-05-09 10:29 | 39.41965 | 23.50051 | 21015 ft | 329 kts | 332° |
| 2026-05-09 10:30 | 39.44142 | 23.48929 | 21184 ft | 344 kts | 334° |
| 2026-05-09 10:30 | 39.46427 | 23.47809 | 21317 ft | 359 kts | 334° |
| 2026-05-09 10:30 | 39.48815 | 23.46670 | 21450 ft | 372 kts | 335° |
| 2026-05-09 10:30 | 39.51290 | 23.45498 | 21579 ft | 385 kts | 335° |
| 2026-05-09 10:31 | 39.53837 | 23.44284 | 21766 ft | 395 kts | 335° |
| 2026-05-09 10:31 | 39.56429 | 23.43041 | 22127 ft | 400 kts | 335° |
| 2026-05-09 10:31 | 39.59050 | 23.41778 | 22556 ft | 403 kts | 335° |
| 2026-05-09 10:31 | 39.61685 | 23.40505 | 23014 ft | 405 kts | 336° |
| 2026-05-09 10:32 | 39.64307 | 23.39235 | 23447 ft | 407 kts | 336° |
| 2026-05-09 10:32 | 39.66986 | 23.37935 | 23837 ft | 409 kts | 336° |
| 2026-05-09 10:32 | 39.69661 | 23.36633 | 24195 ft | 411 kts | 335° |
| 2026-05-09 10:32 | 39.72342 | 23.35325 | 24567 ft | 413 kts | 335° |
| 2026-05-09 10:33 | 39.75036 | 23.34008 | 24922 ft | 415 kts | 335° |
| 2026-05-09 10:33 | 39.77708 | 23.32699 | 25272 ft | 416 kts | 335° |
| 2026-05-09 10:33 | 39.80459 | 23.31351 | 25584 ft | 420 kts | 336° |
| 2026-05-09 10:33 | 39.83202 | 23.30009 | 25895 ft | 422 kts | 336° |
| 2026-05-09 10:34 | 39.85964 | 23.28656 | 26219 ft | 424 kts | 336° |
| 2026-05-09 10:34 | 39.91502 | 23.25936 | 26901 ft | 428 kts | 336° |
| 2026-05-09 10:34 | 39.94291 | 23.24563 | 27234 ft | 429 kts | 336° |
| 2026-05-09 10:35 | 39.97091 | 23.23187 | 27551 ft | 431 kts | 336° |
| 2026-05-09 10:35 | 39.99901 | 23.21804 | 27872 ft | 433 kts | 336° |
| 2026-05-09 10:35 | 40.02720 | 23.20415 | 28166 ft | 435 kts | 336° |
| 2026-05-09 10:35 | 40.05525 | 23.19032 | 28436 ft | 437 kts | 336° |
| 2026-05-09 10:36 | 40.08413 | 23.17607 | 28726 ft | 439 kts | 336° |
| 2026-05-09 10:36 | 40.11271 | 23.16197 | 29012 ft | 440 kts | 336° |
| 2026-05-09 10:36 | 40.14105 | 23.14798 | 29294 ft | 442 kts | 336° |
| 2026-05-09 10:36 | 40.17025 | 23.13357 | 29577 ft | 443 kts | 336° |
| 2026-05-09 10:37 | 40.19874 | 23.11949 | 29871 ft | 444 kts | 336° |
| 2026-05-09 10:37 | 40.22760 | 23.10522 | 30258 ft | 443 kts | 336° |
| 2026-05-09 10:37 | 40.25634 | 23.09098 | 30586 ft | 442 kts | 336° |
| 2026-05-09 10:37 | 40.28515 | 23.07669 | 30884 ft | 442 kts | 336° |
| 2026-05-09 10:38 | 40.31387 | 23.06236 | 31193 ft | 441 kts | 336° |
| 2026-05-09 10:38 | 40.34252 | 23.04806 | 31517 ft | 440 kts | 336° |
| 2026-05-09 10:38 | 40.37113 | 23.03380 | 31837 ft | 440 kts | 336° |
| 2026-05-09 10:38 | 40.39973 | 23.01957 | 32025 ft | 439 kts | 336° |
| 2026-05-09 10:39 | 40.45311 | 22.98318 | 32058 ft | 429 kts | 320° |
| 2026-05-09 10:39 | 40.49418 | 22.92744 | 32058 ft | 428 kts | 306° |
| 2026-05-09 10:40 | 40.53090 | 22.86430 | 32059 ft | 439 kts | 306° |
| 2026-05-09 10:40 | 40.56826 | 22.80060 | 32054 ft | 440 kts | 306° |
| 2026-05-09 10:41 | 40.60558 | 22.73676 | 32054 ft | 440 kts | 306° |
| 2026-05-09 10:41 | 40.64235 | 22.67364 | 32058 ft | 428 kts | 306° |
| 2026-05-09 10:42 | 40.67826 | 22.61167 | 32055 ft | 425 kts | 306° |